Map

Track Data

SID SEASON NUMBER BASIN SUBBASIN NAME ISO_TIME NATURE LAT LON WMO_WIND WMO_PRES WMO_AGENCY TRACK_TYPE DIST2LAND LANDFALL IFLAG USA_AGENCY USA_ATCF_ID USA_LAT USA_LON USA_RECORD USA_STATUS USA_WIND USA_PRES USA_SSHS USA_R34_NE USA_R34_SE USA_R34_SW USA_R34_NW USA_R50_NE USA_R50_SE USA_R50_SW USA_R50_NW USA_R64_NE USA_R64_SE USA_R64_SW USA_R64_NW USA_POCI USA_ROCI USA_RMW USA_EYE TOKYO_LAT TOKYO_LON TOKYO_GRADE TOKYO_WIND TOKYO_PRES TOKYO_R50_DIR TOKYO_R50_LONG TOKYO_R50_SHORT TOKYO_R30_DIR TOKYO_R30_LONG TOKYO_R30_SHORT TOKYO_LAND CMA_LAT CMA_LON CMA_CAT CMA_WIND CMA_PRES HKO_LAT HKO_LON HKO_CAT HKO_WIND HKO_PRES NEWDELHI_LAT NEWDELHI_LON NEWDELHI_GRADE NEWDELHI_WIND NEWDELHI_PRES NEWDELHI_CI NEWDELHI_DP NEWDELHI_POCI REUNION_LAT REUNION_LON REUNION_TYPE REUNION_WIND REUNION_PRES REUNION_TNUM REUNION_CI REUNION_RMW REUNION_R34_NE REUNION_R34_SE REUNION_R34_SW REUNION_R34_NW REUNION_R50_NE REUNION_R50_SE REUNION_R50_SW REUNION_R50_NW REUNION_R64_NE REUNION_R64_SE REUNION_R64_SW REUNION_R64_NW BOM_LAT BOM_LON BOM_TYPE BOM_WIND BOM_PRES BOM_TNUM BOM_CI BOM_RMW BOM_R34_NE BOM_R34_SE BOM_R34_SW BOM_R34_NW BOM_R50_NE BOM_R50_SE BOM_R50_SW BOM_R50_NW BOM_R64_NE BOM_R64_SE BOM_R64_SW BOM_R64_NW BOM_ROCI BOM_POCI BOM_EYE BOM_POS_METHOD BOM_PRES_METHOD NADI_LAT NADI_LON NADI_CAT NADI_WIND NADI_PRES WELLINGTON_LAT WELLINGTON_LON WELLINGTON_WIND WELLINGTON_PRES DS824_LAT DS824_LON DS824_STAGE DS824_WIND DS824_PRES TD9636_LAT TD9636_LON TD9636_STAGE TD9636_WIND TD9636_PRES TD9635_LAT TD9635_LON TD9635_WIND TD9635_PRES TD9635_ROCI NEUMANN_LAT NEUMANN_LON NEUMANN_CLASS NEUMANN_WIND NEUMANN_PRES MLC_LAT MLC_LON MLC_CLASS MLC_WIND MLC_PRES USA_GUST BOM_GUST BOM_GUST_PER REUNION_GUST REUNION_GUST_PER USA_SEAHGT USA_SEARAD_NE USA_SEARAD_SE USA_SEARAD_SW USA_SEARAD_NW STORM_SPEED STORM_DIR
1853239N11302 1853 6 NA NA NOT_NAMED 1853-08-26 12:00:00 TS 10.5000 -58.5000 main 273 207 _____________O -1 10.5000 -58.5000 TS 50 13 293
1853239N11302 1853 6 NA NA NOT_NAMED 1853-08-26 15:00:00 TS 10.7502 -59.0998 main 208 145 _____________P -1 10.7502 -59.0998 TS 50 13 293
1853239N11302 1853 6 NA NA NOT_NAMED 1853-08-26 18:00:00 TS 11.0000 -59.7000 main 145 94 _____________O -1 11.0000 -59.7000 TS 50 13 293
1853239N11302 1853 6 NA CS NOT_NAMED 1853-08-26 21:00:00 TS 11.2499 -60.3001 main 94 81 _____________P -1 11.2499 -60.3001 TS 52 13 293
1853239N11302 1853 6 NA CS NOT_NAMED 1853-08-27 00:00:00 TS 11.5000 -60.9000 main 90 89 _____________O -1 11.5000 -60.9000 TS 55 13 293
1853239N11302 1853 6 NA CS NOT_NAMED 1853-08-27 03:00:00 TS 11.7574 -61.5001 main 123 123 _____________P -1 11.7574 -61.5001 TS 55 13 293
1853239N11302 1853 6 NA CS NOT_NAMED 1853-08-27 06:00:00 TS 12.0000 -62.1000 main 146 145 _____________O -1 12.0000 -62.1000 TS 55 13 290
1853239N11302 1853 6 NA CS NOT_NAMED 1853-08-27 09:00:00 TS 12.1924 -62.7002 main 167 167 _____________P -1 12.1924 -62.7002 TS 55 12 289
1853239N11302 1853 6 NA CS NOT_NAMED 1853-08-27 12:00:00 TS 12.4000 -63.3000 main 191 191 _____________O -1 12.4000 -63.3000 TS 55 13 292
1853239N11302 1853 6 NA CS NOT_NAMED 1853-08-27 15:00:00 TS 12.6774 -63.9001 main 236 235 _____________P -1 12.6774 -63.9001 TS 55 13 297
1853239N11302 1853 6 NA CS NOT_NAMED 1853-08-27 18:00:00 TS 13.0000 -64.5000 main 270 270 _____________O -1 13.0000 -64.5000 TS 55 13 300
1853239N11302 1853 6 NA CS NOT_NAMED 1853-08-27 21:00:00 TS 13.3424 -65.1001 main 317 317 _____________P -1 13.3424 -65.1001 TS 55 14 301
1853239N11302 1853 6 NA CS NOT_NAMED 1853-08-28 00:00:00 TS 13.7000 -65.7000 main 348 347 _____________O -1 13.7000 -65.7000 TS 55 14 301
1853239N11302 1853 6 NA CS NOT_NAMED 1853-08-28 03:00:00 TS 14.0574 -66.3076 main 391 388 _____________P -1 14.0574 -66.3076 TS 55 14 301
1853239N11302 1853 6 NA CS NOT_NAMED 1853-08-28 06:00:00 TS 14.4000 -66.9000 main 391 358 _____________O -1 14.4000 -66.9000 TS 55 13 300
1853239N11302 1853 6 NA CS NOT_NAMED 1853-08-28 09:00:00 TS 14.6998 -67.4503 main 359 333 _____________P -1 14.6998 -67.4503 TS 55 12 299
1853239N11302 1853 6 NA CS NOT_NAMED 1853-08-28 12:00:00 TS 15.0000 -68.0000 main 335 322 _____________O -1 15.0000 -68.0000 TS 55 13 300
1853239N11302 1853 6 NA CS NOT_NAMED 1853-08-28 15:00:00 TS 15.3425 -68.6001 main 324 281 _____________P -1 15.3425 -68.6001 TS 55 14 301
1853239N11302 1853 6 NA CS NOT_NAMED 1853-08-28 18:00:00 TS 15.7000 -69.2000 main 282 251 _____________O -1 15.7000 -69.2000 TS 55 13 303
1853239N11302 1853 6 NA CS NOT_NAMED 1853-08-28 21:00:00 TS 16.0573 -69.7577 main 238 178 _____________P -1 16.0573 -69.7577 TS 55 13 304
1853239N11302 1853 6 NA CS NOT_NAMED 1853-08-29 00:00:00 TS 16.4000 -70.3000 main 178 119 _____________O -1 16.4000 -70.3000 TS 55 12 302
1853239N11302 1853 6 NA CS NOT_NAMED 1853-08-29 03:00:00 TS 16.6999 -70.8503 main 113 67 _____________P -1 16.6999 -70.8503 TS 55 12 300
1853239N11302 1853 6 NA CS NOT_NAMED 1853-08-29 06:00:00 TS 17.0000 -71.4000 main 67 54 _____________O -1 17.0000 -71.4000 TS 55 12 301
1853239N11302 1853 6 NA CS NOT_NAMED 1853-08-29 09:00:00 TS 17.3272 -71.9354 main 62 54 _____________P -1 17.3272 -71.9354 TS 55 13 304
1853239N11302 1853 6 NA CS NOT_NAMED 1853-08-29 12:00:00 TS 17.7000 -72.5000 main 54 11 _____________O -1 17.7000 -72.5000 TS 55 14 305
1853239N11302 1853 6 NA CS NOT_NAMED 1853-08-29 15:00:00 TS 18.1425 -73.1424 main 11 0 _____________P -1 18.1425 -73.1424 TS 52 15 306
1853239N11302 1853 6 NA CS NOT_NAMED 1853-08-29 18:00:00 TS 18.6000 -73.8000 main 11 10 _____________O -1 18.6000 -73.8000 TS 50 15 306
1853239N11302 1853 6 NA CS NOT_NAMED 1853-08-29 21:00:00 TS 19.0072 -74.4005 main 44 44 _____________P -1 19.0072 -74.4005 TS 47 14 305
1853239N11302 1853 6 NA CS NOT_NAMED 1853-08-30 00:00:00 TS 19.4000 -75.0000 main 55 11 _____________O -1 19.4000 -75.0000 TS 45 14 304
1853239N11302 1853 6 NA CS NOT_NAMED 1853-08-30 03:00:00 TS 19.7999 -75.6502 main 15 0 _____________P -1 19.7999 -75.6502 TS 42 15 303
1853239N11302 1853 6 NA NA NOT_NAMED 1853-08-30 06:00:00 TS 20.2000 -76.3000 main 0 0 _____________O -1 20.2000 -76.3000 TS 40 14 305
1853239N11302 1853 6 NA NA NOT_NAMED 1853-08-30 09:00:00 TS 20.6223 -76.9150 main 0 0 _____________P -1 20.6223 -76.9150 TS 37 14 305
1853239N11302 1853 6 NA NA NOT_NAMED 1853-08-30 12:00:00 TS 21.0000 -77.5000 main 0 0 _____________O -1 21.0000 -77.5000 TS 35 13 301
1853239N11302 1853 6 NA NA NOT_NAMED 1853-08-30 15:00:00 TS 21.2722 -78.0580 main 0 0 _____________P -1 21.2722 -78.0580 TS 32 11 296
1853239N11302 1853 6 NA CS NOT_NAMED 1853-08-30 18:00:00 TS 21.5000 -78.6000 main 0 0 _____________O -1 21.5000 -78.6000 TD 30 12 294
1853239N11302 1853 6 NA NA NOT_NAMED 1853-08-30 21:00:00 TS 21.7501 -79.1875 main 0 0 _____________P -1 21.7501 -79.1875 TD 30 11 296
1853239N11302 1853 6 NA NA NOT_NAMED 1853-08-31 00:00:00 TS 22.0000 -79.7000 main 0 0 _____________O -1 22.0000 -79.7000 TD 30 9 302
1853239N11302 1853 6 NA NA NOT_NAMED 1853-08-31 03:00:00 TS 22.2497 -80.0452 main 0 0 _____________P -1 22.2497 -80.0452 TD 30 7 312
1853239N11302 1853 6 NA NA NOT_NAMED 1853-08-31 06:00:00 TS 22.5000 -80.3000 main 0 0 _____________O -1 22.5000 -80.3000 TD 30 6 316
1853239N11302 1853 6 NA NA NOT_NAMED 1853-08-31 09:00:00 TS 22.7122 -80.5281 main 0 0 _____________P -1 22.7122 -80.5281 TD 30 7 317
1853239N11302 1853 6 NA NA NOT_NAMED 1853-08-31 12:00:00 TS 23.0000 -80.8000 main 0 0 _____________O -1 23.0000 -80.8000 TD 30 10 320
1853239N11302 1853 6 NA NA NOT_NAMED 1853-08-31 15:00:00 TS 23.4625 -81.2124 main 45 44 _____________P -1 23.4625 -81.2124 TD 30 13 320
1853239N11302 1853 6 NA NA NOT_NAMED 1853-08-31 18:00:00 TS 24.0000 -81.7000 main 100 100 _____________O -1 24.0000 -81.7000 TD 30 14 318
1853239N11302 1853 6 NA NA NOT_NAMED 1853-08-31 21:00:00 TS 24.5078 -82.2520 main 135 129 _____________P -1 24.5078 -82.2520 TD 32 14 318
1853239N11302 1853 6 NA GM NOT_NAMED 1853-09-01 00:00:00 TS 25.0000 -82.7000 main 142 129 _____________O -1 25.0000 -82.7000 TS 35 11 330
1853239N11302 1853 6 NA GM NOT_NAMED 1853-09-01 03:00:00 TS 25.4572 -82.8682 main 128 111 _____________P -1 25.4572 -82.8682 TS 37 9 349
1853239N11302 1853 6 NA GM NOT_NAMED 1853-09-01 06:00:00 TS 25.9000 -82.9000 main 111 89 _____________O -1 25.9000 -82.9000 TS 40 9 354
1853239N11302 1853 6 NA GM NOT_NAMED 1853-09-01 09:00:00 TS 26.3425 -82.9650 main 89 66 _____________P -1 26.3425 -82.9650 TS 42 9 355
1853239N11302 1853 6 NA GM NOT_NAMED 1853-09-01 12:00:00 TS 26.8000 -83.0000 main 66 39 _____________O -1 26.8000 -83.0000 TS 45 10 356
1853239N11302 1853 6 NA GM NOT_NAMED 1853-09-01 15:00:00 TS 27.3000 -83.0298 main 39 14 _____________P -1 27.3000 -83.0298 TS 47 10 1
1853239N11302 1853 6 NA GM NOT_NAMED 1853-09-01 18:00:00 TS 27.8000 -83.0000 main 14 9 _____________O -1 27.8000 -83.0000 TS 50 10 9
1853239N11302 1853 6 NA GM NOT_NAMED 1853-09-01 21:00:00 TS 28.2575 -82.8652 main 19 9 _____________P -1 28.2575 -82.8652 TS 52 9 16
1853239N11302 1853 6 NA GM NOT_NAMED 1853-09-02 00:00:00 TS 28.7000 -82.7000 main 9 0 _____________O -1 28.7000 -82.7000 TS 55 9 15
1853239N11302 1853 6 NA NA NOT_NAMED 1853-09-02 03:00:00 TS 29.1500 -82.5923 main 0 0 _____________P -1 29.1500 -82.5923 TS 50 9 11
1853239N11302 1853 6 NA NA NOT_NAMED 1853-09-02 06:00:00 TS 29.6000 -82.5000 main 0 0 _____________O -1 29.6000 -82.5000 TS 45 9 9
1853239N11302 1853 6 NA NA NOT_NAMED 1853-09-02 09:00:00 TS 30.0499 -82.4295 main 0 0 _____________P -1 30.0499 -82.4295 TS 42 9 11
1853239N11302 1853 6 NA NA NOT_NAMED 1853-09-02 12:00:00 TS 30.5000 -82.3000 main 0 0 _____________O -1 30.5000 -82.3000 TS 40 10 20
1853239N11302 1853 6 NA NA NOT_NAMED 1853-09-02 15:00:00 TS 30.9575 -82.0376 main 0 0 _____________P -1 30.9575 -82.0376 TS 37 10 30
1853239N11302 1853 6 NA NA NOT_NAMED 1853-09-02 18:00:00 TS 31.4000 -81.7000 main 0 0 _____________O -1 31.4000 -81.7000 TS 35 10 35
1853239N11302 1853 6 NA NA NOT_NAMED 1853-09-02 21:00:00 TS 31.8075 -81.3498 main 0 0 _____________P -1 31.8075 -81.3498 TS 32 10 37
1853239N11302 1853 6 NA NA NOT_NAMED 1853-09-03 00:00:00 TS 32.2000 -81.0000 main 0 0 _____________O -1 32.2000 -81.0000 TD 30 10 35
1853239N11302 1853 6 NA NA NOT_NAMED 1853-09-03 03:00:00 TS 32.5999 -80.6921 main 0 0 _____________P -1 32.5999 -80.6921 TD 30 9 32
1853239N11302 1853 6 NA NA NOT_NAMED 1853-09-03 06:00:00 TS 33.0000 -80.4000 main 0 0 _____________O -1 33.0000 -80.4000 TD 30 9 32
1853239N11302 1853 6 NA NA NOT_NAMED 1853-09-03 09:00:00 TS 33.4002 -80.1031 main 0 0 _____________P -1 33.4002 -80.1031 TD 30 9 32
1853239N11302 1853 6 NA NA NOT_NAMED 1853-09-03 12:00:00 TS 33.8000 -79.8000 main 0 _____________O -1 33.8000 -79.8000 TD 30 9 32

About IBTrACS Database

This database is a web-friendly format of International Best Track Archive for Climate Stewardship (IBTrACS), a global best track data archive curated by NOAA dating back to 1842.

Updated: 2021-12-06